Time;durP1;ratioP1;P1;durP2;ratioP2;P2;SDS_P1;SDS_P2;PMS_P1;PMS_P2;Temp;Humidity;BMP_temperature;BMP_pressure;BME280_temperature;BME280_humidity;BME280_pressure;Samples;Min_cycle;Max_cycle;Signal;HPM_P1;HPM_P2
2024/03/13 00:04:47;;;;;;;34.10;23.30;;;;;;;6.16;93.40;98577.11;226831;1266;23024;-81
2024/03/13 00:09:53;;;;;;;30.50;22.40;;;;;;;6.17;93.20;98578.30;226800;1268;22518;-80
2024/03/13 00:14:56;;;;;;;31.30;21.20;;;;;;;6.17;93.39;98578.04;226676;1250;24193;-80
2024/03/13 00:19:58;;;;;;;28.30;20.20;;;;;;;6.19;93.37;98575.65;226877;1271;22533;-81
2024/03/13 00:25:00;;;;;;;30.50;21.40;;;;;;;6.20;93.24;98583.91;226811;1270;22546;-80
2024/03/13 00:30:02;;;;;;;33.50;23.20;;;;;;;6.22;93.60;98583.44;226795;1268;22590;-81
2024/03/13 00:35:05;;;;;;;34.50;22.90;;;;;;;6.26;93.69;98583.20;226890;1271;22550;-81
2024/03/13 00:40:07;;;;;;;35.30;23.60;;;;;;;6.27;93.07;98586.05;226805;1271;24223;-81
2024/03/13 00:45:13;;;;;;;35.10;21.40;;;;;;;6.28;93.15;98583.69;226765;1272;22531;-82
2024/03/13 00:50:15;;;;;;;36.90;23.60;;;;;;;6.29;93.42;98591.27;226708;1273;22552;-81
2024/03/13 00:55:18;;;;;;;40.20;24.20;;;;;;;6.30;93.16;98583.27;226381;1269;551801;-81
2024/03/13 01:00:22;;;;;;;37.00;23.50;;;;;;;6.30;93.23;98581.08;226865;1268;25744;-81
2024/03/13 01:05:25;;;;;;;40.60;24.80;;;;;;;6.28;93.09;98581.98;226680;1270;22859;-81
2024/03/13 01:10:27;;;;;;;41.90;25.90;;;;;;;6.25;93.51;98584.48;226731;1269;23640;-82
2024/03/13 01:15:29;;;;;;;41.60;26.20;;;;;;;6.24;93.28;98585.85;226881;1270;24350;-82
2024/03/13 01:20:31;;;;;;;41.70;26.90;;;;;;;6.23;93.38;98585.07;226759;1270;22576;-82
2024/03/13 01:25:33;;;;;;;46.80;29.10;;;;;;;6.25;93.50;98586.84;226757;1273;22534;-82
2024/03/13 01:30:35;;;;;;;48.70;30.40;;;;;;;6.26;93.40;98593.04;226784;1269;22517;-80
2024/03/13 01:35:37;;;;;;;50.50;30.10;;;;;;;6.27;93.34;98592.55;226741;1269;22540;-81
2024/03/13 01:57:02;;;;;;;67.70;36.60;;;;;;;6.30;93.60;98587.46;226809;1270;22556;-82
2024/03/13 02:02:24;;;;;;;62.80;37.90;;;;;;;6.32;93.48;98590.45;226817;1271;22584;-81
2024/03/13 02:07:28;;;;;;;67.40;37.90;;;;;;;6.32;93.39;98583.73;226732;1269;22582;-82
2024/03/13 02:12:30;;;;;;;70.30;40.70;;;;;;;6.34;93.32;98579.77;226714;1269;22614;-81
2024/03/13 02:17:37;;;;;;;68.30;39.70;;;;;;;6.34;93.46;98582.31;226779;1270;22534;-81
2024/03/13 02:22:41;;;;;;;72.60;41.00;;;;;;;6.35;93.68;98581.38;226870;1269;25348;-82
2024/03/13 02:27:51;;;;;;;73.70;42.10;;;;;;;6.36;93.58;98580.19;226885;1270;22571;-81
2024/03/13 02:32:56;;;;;;;68.50;38.70;;;;;;;6.38;93.69;98582.98;226723;1273;22533;-81
2024/03/13 02:37:59;;;;;;;71.10;41.10;;;;;;;6.38;93.49;98580.52;226825;1271;22684;-83
2024/03/13 02:43:01;;;;;;;70.70;41.00;;;;;;;6.38;93.49;98583.63;226713;1272;22536;-81
2024/03/13 02:48:03;;;;;;;72.00;39.80;;;;;;;6.39;93.27;98580.73;226797;1271;22547;-82
2024/03/13 02:53:07;;;;;;;69.80;40.50;;;;;;;6.39;93.15;98585.11;226699;1270;22541;-82
2024/03/13 02:58:10;;;;;;;70.30;41.30;;;;;;;6.38;93.37;98583.57;226811;1268;22548;-82
2024/03/13 03:03:13;;;;;;;66.70;39.50;;;;;;;6.36;93.01;98581.73;226824;1272;22595;-81
2024/03/13 03:08:15;;;;;;;64.60;38.80;;;;;;;6.34;93.13;98577.05;226842;1270;22546;-82
2024/03/13 03:13:17;;;;;;;65.70;38.50;;;;;;;6.34;93.08;98585.83;226846;1273;22532;-82
2024/03/13 03:18:19;;;;;;;66.40;38.50;;;;;;;6.35;93.39;98582.26;226826;1270;22538;-81
2024/03/13 03:23:21;;;;;;;69.60;38.20;;;;;;;6.34;93.05;98581.66;226850;1249;22539;-81
2024/03/13 03:28:23;;;;;;;72.00;39.20;;;;;;;6.31;93.10;98586.84;226799;1271;24261;-82
2024/03/13 03:33:25;;;;;;;66.60;38.70;;;;;;;6.30;93.17;98595.02;226802;1268;22545;-82
2024/03/13 03:38:28;;;;;;;69.20;40.70;;;;;;;6.29;93.35;98600.22;226726;1271;24309;-82
2024/03/13 03:43:30;;;;;;;67.90;39.50;;;;;;;6.27;92.91;98604.22;226822;1273;22540;-82
2024/03/13 03:48:32;;;;;;;71.50;40.70;;;;;;;6.29;93.07;98606.33;226813;1271;22538;-82
2024/03/13 03:53:34;;;;;;;74.30;43.00;;;;;;;6.30;93.28;98606.45;226796;1270;22557;-82
2024/03/13 03:58:38;;;;;;;77.80;41.20;;;;;;;6.30;93.10;98601.02;226845;1271;22526;-81
2024/03/13 04:03:41;;;;;;;75.70;43.00;;;;;;;6.29;93.17;98612.95;226750;1271;22545;-82
2024/03/13 04:08:47;;;;;;;74.60;41.70;;;;;;;6.30;93.05;98614.63;226773;1273;22526;-82
2024/03/13 04:13:50;;;;;;;71.40;40.90;;;;;;;6.31;93.09;98615.67;226844;1272;24212;-82
2024/03/13 04:18:54;;;;;;;76.70;42.10;;;;;;;6.33;92.93;98620.77;226841;1266;22543;-82
2024/03/13 04:23:56;;;;;;;78.50;44.50;;;;;;;6.35;92.98;98624.27;226818;1270;22600;-81
2024/03/13 04:28:58;;;;;;;77.80;42.80;;;;;;;6.35;93.29;98622.66;226717;1273;22530;-82
2024/03/13 04:34:00;;;;;;;74.00;43.70;;;;;;;6.35;93.21;98622.10;226693;1271;22537;-81
2024/03/13 04:39:04;;;;;;;72.20;41.40;;;;;;;6.36;93.42;98626.23;226814;1272;22553;-82
2024/03/13 04:44:09;;;;;;;79.00;44.20;;;;;;;6.36;93.36;98629.72;226737;1273;22575;-81
2024/03/13 04:49:12;;;;;;;73.90;43.10;;;;;;;6.38;93.18;98632.14;226793;1273;22527;-82
2024/03/13 04:54:16;;;;;;;87.00;45.60;;;;;;;6.40;93.35;98632.73;226627;1273;22526;-82
2024/03/13 04:59:18;;;;;;;78.10;43.50;;;;;;;6.42;93.02;98636.21;226798;1273;22525;-82
2024/03/13 05:04:20;;;;;;;85.00;45.30;;;;;;;6.44;93.37;98640.95;226776;1273;22541;-82
2024/03/13 05:09:22;;;;;;;85.40;45.00;;;;;;;6.46;93.42;98646.17;226949;1272;22567;-83
2024/03/13 05:14:25;;;;;;;83.90;45.60;;;;;;;6.47;93.59;98647.97;226805;1273;25414;-83
2024/03/13 05:19:26;;;;;;;89.60;47.70;;;;;;;6.48;93.37;98650.50;226791;1270;22553;-82
2024/03/13 05:24:29;;;;;;;86.50;48.10;;;;;;;6.49;93.38;98657.02;226841;1272;23255;-81
2024/03/13 05:29:32;;;;;;;92.70;50.40;;;;;;;6.51;93.12;98662.35;226741;1273;22627;-82
2024/03/13 05:34:34;;;;;;;94.90;51.00;;;;;;;6.53;93.12;98664.10;226697;1273;22542;-82
2024/03/13 05:39:36;;;;;;;103.70;52.70;;;;;;;6.54;93.21;98669.73;226734;1262;22541;-83
2024/03/13 05:44:39;;;;;;;96.40;52.40;;;;;;;6.55;93.56;98674.39;226786;1273;22626;-82
2024/03/13 05:49:41;;;;;;;101.70;52.40;;;;;;;6.57;93.50;98679.91;226730;1273;22732;-81
2024/03/13 05:54:43;;;;;;;103.10;53.60;;;;;;;6.59;93.01;98680.60;226756;1271;23021;-82
2024/03/13 05:59:45;;;;;;;101.30;51.10;;;;;;;6.60;93.34;98680.44;226815;1269;22549;-82
2024/03/13 06:04:47;;;;;;;96.40;51.10;;;;;;;6.62;93.54;98683.95;226733;1264;22632;-82
2024/03/13 06:09:49;;;;;;;94.00;48.60;;;;;;;6.62;93.19;98691.57;226748;1272;22539;-82
2024/03/13 06:14:52;;;;;;;94.40;51.30;;;;;;;6.64;93.17;98692.79;226692;1272;22532;-81
2024/03/13 06:19:54;;;;;;;98.40;52.60;;;;;;;6.68;93.26;98695.89;226727;1272;24199;-83
2024/03/13 06:25:00;;;;;;;95.40;50.40;;;;;;;6.71;93.27;98700.08;226733;1265;22548;-82
2024/03/13 06:30:03;;;;;;;96.10;50.50;;;;;;;6.75;93.08;98702.52;226697;1273;22537;-82
2024/03/13 06:35:05;;;;;;;86.40;47.00;;;;;;;6.77;93.00;98701.36;226895;1271;24317;-84
2024/03/13 06:40:08;;;;;;;80.00;45.40;;;;;;;6.81;93.12;98704.65;226866;1271;22527;-83
2024/03/13 06:45:10;;;;;;;81.00;45.10;;;;;;;6.82;92.75;98709.48;226870;1273;22592;-81
2024/03/13 06:50:22;;;;;;;81.00;46.40;;;;;;;6.84;92.72;98713.55;226825;1260;22530;-81
2024/03/13 06:55:25;;;;;;;75.40;43.50;;;;;;;6.84;92.57;98723.69;226736;1273;22525;-81
2024/03/13 07:00:32;;;;;;;80.40;45.60;;;;;;;6.86;92.49;98722.52;226532;1259;22531;-82
2024/03/13 07:05:35;;;;;;;76.30;43.00;;;;;;;6.87;92.61;98724.42;226775;1266;22535;-85
2024/03/13 07:10:38;;;;;;;74.10;42.50;;;;;;;6.91;92.32;98725.77;226558;1250;22538;-83
2024/03/13 07:15:44;;;;;;;66.70;41.70;;;;;;;6.93;92.40;98732.70;226580;1251;22562;-83
2024/03/13 07:20:46;;;;;;;76.50;42.20;;;;;;;6.97;92.29;98728.95;226627;1265;22565;-83
2024/03/13 07:25:59;;;;;;;71.60;41.40;;;;;;;7.06;92.49;98732.71;226710;1257;23593;-84
2024/03/13 07:31:02;;;;;;;69.30;39.30;;;;;;;7.13;92.09;98735.45;226690;1253;22536;-83
2024/03/13 07:36:04;;;;;;;65.50;39.90;;;;;;;7.18;92.10;98737.91;226324;1256;22640;-83
2024/03/13 07:41:11;;;;;;;64.90;37.50;;;;;;;7.24;91.64;98738.49;226548;1272;25487;-84
2024/03/13 07:46:15;;;;;;;66.50;38.20;;;;;;;7.27;91.58;98740.75;226586;1256;22530;-83
2024/03/13 07:51:18;;;;;;;70.00;40.10;;;;;;;7.32;91.55;98748.77;226765;1270;22560;-83
2024/03/13 07:56:20;;;;;;;68.00;39.20;;;;;;;7.33;91.22;98750.36;226672;1258;24265;-82
2024/03/13 08:01:22;;;;;;;64.70;37.00;;;;;;;7.33;91.37;98749.86;226794;1273;26004;-84
2024/03/13 08:06:24;;;;;;;68.30;38.20;;;;;;;7.35;91.24;98753.14;226638;1270;22641;-83
2024/03/13 08:11:44;;;;;;;64.20;38.20;;;;;;;7.40;91.41;98753.50;226640;1260;25338;-80
2024/03/13 08:17:06;;;;;;;63.90;38.30;;;;;;;7.48;91.37;98753.14;226617;1256;22684;-81
2024/03/13 08:22:27;;;;;;;58.20;36.60;;;;;;;7.57;91.65;98757.52;226600;1269;22542;-82
2024/03/13 08:27:46;;;;;;;60.80;37.50;;;;;;;7.67;91.44;98758.90;226662;1272;24206;-83
2024/03/13 08:33:06;;;;;;;64.00;37.40;;;;;;;7.75;90.99;98762.73;226690;1269;22475;-84
2024/03/13 08:38:27;;;;;;;62.40;37.30;;;;;;;7.89;90.80;98765.95;226384;1249;22550;-84
2024/03/13 08:43:47;;;;;;;58.50;35.80;;;;;;;8.07;90.39;98769.14;226366;1265;22559;-80
2024/03/13 08:49:07;;;;;;;71.70;39.70;;;;;;;8.14;90.22;98773.58;226383;1265;22539;-79
2024/03/13 08:54:26;;;;;;;63.60;36.80;;;;;;;8.36;90.05;98774.60;226448;1266;22528;-81
2024/03/13 08:59:49;;;;;;;59.70;35.60;;;;;;;8.59;89.93;98776.40;226738;1264;25252;-80
2024/03/13 09:05:09;;;;;;;53.20;33.00;;;;;;;8.84;89.37;98769.83;226529;1270;22557;-87
2024/03/13 09:10:28;;;;;;;53.20;33.00;;;;;;;9.14;88.71;98777.09;226660;1273;22543;-81
2024/03/13 09:15:30;;;;;;;55.90;34.80;;;;;;;9.38;87.81;98777.74;226591;1261;24209;-81
2024/03/13 09:20:32;;;;;;;50.00;30.90;;;;;;;9.61;87.43;98781.80;226488;1265;22984;-80
2024/03/13 09:25:35;;;;;;;47.20;30.90;;;;;;;9.85;86.94;98785.14;226304;1272;22549;-81
2024/03/13 09:30:38;;;;;;;42.60;29.00;;;;;;;10.00;86.37;98790.00;226525;1266;22540;-82
2024/03/13 09:35:40;;;;;;;41.10;25.70;;;;;;;10.11;84.71;98805.41;226311;1268;25284;-81
2024/03/13 09:40:42;;;;;;;39.40;25.30;;;;;;;10.15;83.78;98805.61;226443;1267;22484;-82
2024/03/13 09:45:50;;;;;;;38.50;25.50;;;;;;;10.16;83.39;98808.41;226416;1259;22526;-81
2024/03/13 09:50:56;;;;;;;34.50;22.40;;;;;;;10.35;83.25;98814.15;226715;1271;23032;-86
2024/03/13 09:55:59;;;;;;;34.50;23.20;;;;;;;10.35;82.02;98815.85;226466;1273;22806;-81
2024/03/13 10:01:03;;;;;;;38.00;23.50;;;;;;;10.39;82.31;98821.05;226512;1267;22644;-79
2024/03/13 10:06:12;;;;;;;40.40;25.40;;;;;;;10.62;82.25;98815.17;226639;1251;22616;-84
2024/03/13 10:11:18;;;;;;;34.80;23.80;;;;;;;10.71;81.48;98820.13;226661;1273;22554;-80
2024/03/13 10:16:24;;;;;;;39.40;24.90;;;;;;;10.79;81.20;98816.05;226572;1270;24224;-80
2024/03/13 10:21:28;;;;;;;39.70;23.30;;;;;;;10.92;80.46;98818.29;226560;1272;22490;-80
2024/03/13 10:26:31;;;;;;;31.00;20.10;;;;;;;11.01;80.12;98820.46;226599;1273;22569;-82
2024/03/13 10:31:36;;;;;;;32.70;21.30;;;;;;;11.07;78.90;98826.42;226646;1273;22564;-82
2024/03/13 10:36:39;;;;;;;29.50;19.70;;;;;;;11.04;78.73;98826.10;226483;1273;22538;-78
2024/03/13 10:41:44;;;;;;;32.90;21.40;;;;;;;11.15;79.08;98830.16;226538;1253;22555;-81
2024/03/13 10:46:49;;;;;;;34.30;21.50;;;;;;;11.39;78.57;98829.66;226495;1263;22558;-80
2024/03/13 10:51:56;;;;;;;36.50;23.40;;;;;;;11.44;78.29;98828.64;226493;1249;22572;-81
2024/03/13 10:56:58;;;;;;;39.60;25.40;;;;;;;11.39;78.23;98828.53;226639;1258;24248;-80
2024/03/13 11:02:03;;;;;;;38.30;24.30;;;;;;;11.38;78.33;98830.11;226586;1257;23470;-81
2024/03/13 11:07:12;;;;;;;39.30;23.50;;;;;;;11.44;78.44;98828.42;226547;1273;22665;-81
2024/03/13 11:12:23;;;;;;;34.70;21.70;;;;;;;11.49;78.02;98831.85;226695;1264;22660;-81
2024/03/13 11:17:28;;;;;;;33.80;21.00;;;;;;;11.51;77.37;98828.24;226638;1254;23588;-80
2024/03/13 11:22:33;;;;;;;31.30;20.60;;;;;;;11.61;77.38;98824.91;226588;1273;22629;-81
2024/03/13 11:27:42;;;;;;;37.00;20.10;;;;;;;11.85;77.44;98825.20;226717;1273;23035;-81
2024/03/13 11:32:44;;;;;;;33.00;22.00;;;;;;;12.03;76.84;98819.23;226684;1273;22549;-81
2024/03/13 11:37:49;;;;;;;30.30;19.60;;;;;;;12.20;76.63;98817.48;226685;1272;22539;-81
2024/03/13 11:42:51;;;;;;;31.90;21.00;;;;;;;12.29;76.25;98813.80;226643;1273;22525;-81
2024/03/13 11:47:57;;;;;;;32.10;20.40;;;;;;;12.47;76.14;98812.27;226733;1257;23278;-82
2024/03/13 11:53:04;;;;;;;30.00;20.50;;;;;;;12.58;75.45;98805.02;226578;1272;25417;-82
2024/03/13 11:58:22;;;;;;;31.20;20.20;;;;;;;12.64;75.14;98799.05;226574;1273;22664;-82
2024/03/13 12:03:35;;;;;;;30.10;20.20;;;;;;;12.64;74.60;98795.02;226630;1264;22545;-82
2024/03/13 12:08:38;;;;;;;33.10;20.90;;;;;;;12.68;74.80;98793.94;226653;1257;22542;-82
2024/03/13 12:13:42;;;;;;;31.40;20.30;;;;;;;12.71;74.27;98794.28;226581;1267;22589;-82
2024/03/13 12:18:47;;;;;;;32.00;20.70;;;;;;;12.69;73.88;98792.32;226712;1273;25240;-86
2024/03/13 12:23:54;;;;;;;32.00;20.60;;;;;;;12.60;73.38;98794.83;226534;1249;23058;-82
2024/03/13 12:28:59;;;;;;;30.00;19.70;;;;;;;12.42;73.46;98798.35;226675;1264;22544;-82
2024/03/13 12:34:01;;;;;;;30.20;19.30;;;;;;;12.17;72.97;98796.39;226608;1264;25404;-81
2024/03/13 12:39:04;;;;;;;32.80;20.80;;;;;;;11.88;72.77;98798.00;226663;1273;22526;-81
2024/03/13 12:44:07;;;;;;;35.00;21.40;;;;;;;11.69;72.97;98796.69;226723;1273;22536;-82
2024/03/13 12:49:12;;;;;;;32.50;21.60;;;;;;;11.55;73.28;98797.05;226724;1267;22548;-81
2024/03/13 12:54:17;;;;;;;31.60;20.30;;;;;;;11.46;73.75;98789.86;226519;1273;268129;-81
2024/03/13 12:59:22;;;;;;;35.00;22.00;;;;;;;11.56;74.21;98786.31;226661;1272;22532;-82
2024/03/13 13:04:24;;;;;;;32.30;20.80;;;;;;;11.71;74.29;98782.86;226714;1270;22543;-81
2024/03/13 13:09:26;;;;;;;27.50;19.20;;;;;;;11.80;73.87;98780.10;226723;1264;25238;-81
2024/03/13 13:14:30;;;;;;;31.20;19.10;;;;;;;11.78;73.56;98788.87;226657;1267;22572;-81
2024/03/13 14:25:26;;;;;;;27.50;16.50;;;;;;;10.36;73.16;98799.97;219563;1305;545679;-79
2024/03/13 14:30:28;;;;;;;27.40;17.20;;;;;;;10.28;72.96;98798.80;224519;1275;22606;-84
2024/03/13 14:35:31;;;;;;;30.50;17.70;;;;;;;10.27;72.89;98795.52;224214;1279;189736;-81
2024/03/13 14:40:34;;;;;;;29.30;17.80;;;;;;;10.27;72.87;98801.39;224893;1285;22571;-80
2024/03/13 14:45:36;;;;;;;28.00;18.80;;;;;;;10.27;73.04;98802.98;224857;1279;23093;-80
2024/03/13 14:50:38;;;;;;;33.50;19.40;;;;;;;10.27;73.38;98807.73;225467;1273;23288;-81
2024/03/13 14:55:40;;;;;;;31.60;19.70;;;;;;;10.25;73.60;98812.33;225709;1278;24715;-82
2024/03/13 15:00:44;;;;;;;33.60;20.00;;;;;;;10.23;73.81;98814.09;225313;1276;22560;-79
2024/03/13 15:05:47;;;;;;;31.60;18.80;;;;;;;10.20;73.95;98817.73;225388;1280;22535;-80
2024/03/13 15:10:49;;;;;;;28.80;18.20;;;;;;;10.18;74.25;98817.24;225346;1275;22533;-80
2024/03/13 15:15:53;;;;;;;30.30;19.00;;;;;;;10.16;74.09;98818.44;225433;1273;22553;-80
2024/03/13 15:20:55;;;;;;;28.80;18.50;;;;;;;10.16;74.40;98818.38;225709;1275;25430;-81
2024/03/13 15:25:57;;;;;;;30.60;19.40;;;;;;;10.16;74.54;98819.90;225724;1280;22600;-82
2024/03/13 15:30:59;;;;;;;33.50;19.90;;;;;;;10.18;74.23;98820.71;225881;1278;22533;-82
2024/03/13 15:36:05;;;;;;;32.70;20.20;;;;;;;10.21;74.42;98820.03;225719;1280;26051;-82
2024/03/13 15:41:08;;;;;;;34.00;20.50;;;;;;;10.26;74.56;98810.08;225759;1275;24250;-82
2024/03/13 15:46:11;;;;;;;29.80;19.30;;;;;;;10.33;74.32;98807.00;225769;1280;22556;-82
2024/03/13 15:51:13;;;;;;;33.20;20.10;;;;;;;10.34;73.89;98803.36;225867;1278;24773;-83
2024/03/13 15:56:16;;;;;;;33.20;19.20;;;;;;;10.33;74.07;98804.23;225833;1278;22575;-81
2024/03/13 16:01:20;;;;;;;30.50;19.10;;;;;;;10.32;74.44;98803.02;225673;1279;22569;-82
2024/03/13 16:06:22;;;;;;;30.50;19.50;;;;;;;10.28;74.25;98803.70;225694;1281;22535;-82
2024/03/13 16:11:28;;;;;;;31.50;19.80;;;;;;;10.21;74.01;98806.63;225796;1279;22547;-83
2024/03/13 16:16:32;;;;;;;29.20;19.20;;;;;;;10.15;73.89;98817.77;225811;1279;22565;-80
2024/03/13 16:21:35;;;;;;;30.90;19.00;;;;;;;10.05;73.89;98819.64;225742;1279;22556;-79
2024/03/13 16:26:38;;;;;;;30.70;19.10;;;;;;;9.97;73.93;98823.38;225701;1281;23027;-82
2024/03/13 16:31:40;;;;;;;32.10;20.40;;;;;;;9.89;74.15;98823.81;225851;1279;22548;-82
2024/03/13 16:36:42;;;;;;;33.20;20.50;;;;;;;9.81;74.66;98825.18;225824;1279;22548;-83
2024/03/13 16:41:44;;;;;;;34.40;20.30;;;;;;;9.72;74.71;98824.13;225646;1280;22547;-83
2024/03/13 16:46:47;;;;;;;34.00;21.50;;;;;;;9.65;74.78;98828.20;225695;1281;22535;-82
2024/03/13 16:51:50;;;;;;;32.70;20.50;;;;;;;9.57;75.08;98842.42;225942;1278;22556;-82
2024/03/13 16:56:53;;;;;;;33.10;21.40;;;;;;;9.49;75.02;98846.19;226098;1276;25287;-83
2024/03/13 17:01:56;;;;;;;30.40;19.50;;;;;;;9.40;75.41;98846.93;225905;1275;22556;-83
2024/03/13 17:06:58;;;;;;;38.20;22.10;;;;;;;9.33;75.35;98853.73;226035;1275;22558;-82
2024/03/13 17:12:02;;;;;;;33.80;21.50;;;;;;;9.26;75.46;98855.63;225995;1275;22555;-81
2024/03/13 17:17:05;;;;;;;27.40;16.70;;;;;;;9.18;74.83;98854.90;225817;1280;22544;-82
2024/03/13 17:22:07;;;;;;;31.10;17.50;;;;;;;9.13;74.40;98859.42;225904;1278;25900;-82
2024/03/13 17:27:09;;;;;;;26.50;16.70;;;;;;;9.08;74.08;98866.40;225855;1278;22815;-84
2024/03/13 17:32:14;;;;;;;27.00;17.00;;;;;;;9.05;74.21;98859.46;225871;1278;22623;-83
2024/03/13 17:37:18;;;;;;;28.50;17.70;;;;;;;9.01;74.09;98861.14;226046;1276;22547;-83
2024/03/13 17:42:21;;;;;;;30.20;19.00;;;;;;;8.98;74.21;98869.55;225773;1280;22565;-82
2024/03/13 17:47:23;;;;;;;30.70;19.00;;;;;;;8.95;74.34;98871.67;225906;1278;24321;-82
2024/03/13 17:52:25;;;;;;;30.40;18.30;;;;;;;8.91;74.33;98873.52;226004;1278;25246;-82
2024/03/13 17:57:28;;;;;;;30.70;19.60;;;;;;;8.89;74.64;98868.70;226102;1280;22540;-82
2024/03/13 18:02:31;;;;;;;31.60;21.30;;;;;;;8.86;74.84;98872.46;225834;1277;22549;-82
2024/03/13 18:07:33;;;;;;;39.50;23.90;;;;;;;8.82;75.03;98873.77;225800;1278;22547;-82
2024/03/13 18:12:35;;;;;;;37.80;22.50;;;;;;;8.79;75.00;98875.43;226009;1277;22560;-82
2024/03/13 18:17:39;;;;;;;38.40;21.20;;;;;;;8.73;75.07;98880.29;225980;1278;22540;-82
2024/03/13 18:22:41;;;;;;;38.60;21.50;;;;;;;8.70;75.14;98883.45;225944;1278;22577;-83
2024/03/13 18:27:43;;;;;;;34.50;21.80;;;;;;;8.67;75.47;98885.98;226018;1278;22569;-82
2024/03/13 18:32:45;;;;;;;34.20;21.30;;;;;;;8.63;75.56;98880.91;226165;1280;22527;-82
2024/03/13 18:37:50;;;;;;;36.20;23.00;;;;;;;8.61;75.77;98878.85;225811;1280;22539;-82
2024/03/13 18:42:52;;;;;;;38.10;23.40;;;;;;;8.59;76.22;98882.48;226168;1278;22542;-82
2024/03/13 18:47:54;;;;;;;48.00;28.20;;;;;;;8.54;76.13;98902.51;225911;1278;24267;-82
2024/03/13 18:52:57;;;;;;;50.00;30.20;;;;;;;8.49;76.13;98902.64;226202;1276;22573;-83
2024/03/13 18:58:03;;;;;;;69.30;41.80;;;;;;;8.44;76.22;98901.63;225925;1278;24874;-83
2024/03/13 19:03:05;;;;;;;90.10;49.00;;;;;;;8.40;76.14;98902.80;225966;1275;22573;-83
2024/03/13 19:08:07;;;;;;;101.10;52.80;;;;;;;8.38;76.46;98906.06;225957;1278;22661;-83
2024/03/13 19:13:10;;;;;;;60.70;35.00;;;;;;;8.37;76.50;98912.71;225902;1280;25342;-83
2024/03/13 19:18:12;;;;;;;49.30;28.70;;;;;;;8.35;76.63;98912.02;225958;1278;22605;-83
2024/03/13 19:23:15;;;;;;;46.20;27.50;;;;;;;8.33;76.87;98918.93;226248;1275;22559;-83
2024/03/13 19:28:17;;;;;;;45.10;27.30;;;;;;;8.29;76.77;98918.58;225911;1278;23083;-82
2024/03/13 19:33:20;;;;;;;50.90;29.60;;;;;;;8.27;76.96;98917.23;226062;1280;25909;-83
2024/03/13 19:38:23;;;;;;;43.00;28.30;;;;;;;8.25;77.03;98917.96;225939;1264;22545;-83
2024/03/13 19:43:25;;;;;;;120.10;59.60;;;;;;;8.25;77.32;98917.47;225907;1278;25581;-82
2024/03/13 19:48:28;;;;;;;130.40;62.20;;;;;;;8.25;77.42;98921.65;226081;1275;22544;-83
2024/03/13 19:53:30;;;;;;;103.60;49.50;;;;;;;8.25;77.38;98922.64;225901;1280;22689;-83
2024/03/13 19:58:33;;;;;;;86.20;42.40;;;;;;;8.24;77.56;98919.38;225944;1278;22585;-83
2024/03/13 20:03:37;;;;;;;81.10;41.10;;;;;;;8.25;77.84;98925.64;225807;1279;23435;-82
2024/03/13 20:08:41;;;;;;;78.10;40.20;;;;;;;8.25;77.93;98920.83;225970;1278;22559;-83
2024/03/13 20:13:43;;;;;;;63.10;34.00;;;;;;;8.24;77.99;98921.25;226047;1275;22538;-83
2024/03/13 20:18:46;;;;;;;59.50;34.60;;;;;;;8.20;77.90;98923.70;225997;1277;22563;-83
2024/03/13 20:23:48;;;;;;;66.40;35.80;;;;;;;8.15;78.48;98926.13;225886;1278;22547;-83
2024/03/13 20:28:52;;;;;;;61.60;34.60;;;;;;;8.14;78.43;98924.81;225983;1280;22683;-83
2024/03/13 20:33:55;;;;;;;52.00;33.80;;;;;;;8.12;78.76;98918.17;226033;1278;22531;-83
2024/03/13 20:39:06;;;;;;;56.20;33.40;;;;;;;8.09;78.79;98919.18;225961;1278;22527;-82
2024/03/13 20:44:10;;;;;;;57.10;33.50;;;;;;;8.06;79.26;98919.55;225929;1280;24336;-82
2024/03/13 20:49:15;;;;;;;61.60;36.00;;;;;;;8.03;79.29;98918.17;225901;1278;22633;-83
2024/03/13 20:54:19;;;;;;;60.90;34.00;;;;;;;7.98;79.35;98911.37;226170;1275;22666;-82
2024/03/13 20:59:22;;;;;;;52.30;32.50;;;;;;;7.93;79.84;98909.39;225844;1278;22543;-82
2024/03/13 21:04:24;;;;;;;61.10;35.20;;;;;;;7.91;79.97;98902.95;225889;1280;22580;-82
2024/03/13 21:09:26;;;;;;;67.80;40.40;;;;;;;7.91;80.04;98904.76;226043;1278;22622;-83
2024/03/13 21:14:30;;;;;;;59.50;35.60;;;;;;;7.90;80.15;98904.83;225909;1280;22905;-84
2024/03/13 21:19:32;;;;;;;62.20;36.80;;;;;;;7.87;80.09;98905.67;225998;1275;25264;-84
2024/03/13 21:24:34;;;;;;;63.40;37.60;;;;;;;7.87;80.16;98907.45;225955;1280;24235;-83
2024/03/13 21:29:36;;;;;;;62.80;37.30;;;;;;;7.87;80.08;98903.12;225985;1275;22567;-83
2024/03/13 21:34:38;;;;;;;62.70;35.60;;;;;;;7.87;80.48;98906.64;225949;1271;22538;-83
2024/03/13 21:39:41;;;;;;;64.60;36.60;;;;;;;7.85;80.48;98903.83;225991;1280;22570;-83
2024/03/13 21:44:43;;;;;;;66.20;38.00;;;;;;;7.84;80.59;98901.30;226135;1278;22553;-83
2024/03/13 21:49:45;;;;;;;66.80;39.40;;;;;;;7.83;80.79;98897.92;226099;1278;22544;-83
2024/03/13 21:54:48;;;;;;;69.80;41.10;;;;;;;7.83;80.73;98899.73;226221;1280;22556;-82
2024/03/13 21:59:50;;;;;;;74.00;41.60;;;;;;;7.81;80.66;98898.31;225945;1280;22539;-83
2024/03/13 22:04:52;;;;;;;77.60;42.60;;;;;;;7.80;81.36;98896.34;226077;1278;22567;-83
2024/03/13 22:09:54;;;;;;;71.90;41.30;;;;;;;7.78;81.32;98898.80;226134;1279;22648;-83
2024/03/13 22:14:56;;;;;;;75.60;40.80;;;;;;;7.73;81.09;98891.41;225926;1279;22478;-82
2024/03/13 22:19:59;;;;;;;66.50;38.20;;;;;;;7.68;80.86;98896.36;226094;1278;22678;-82
2024/03/13 22:25:02;;;;;;;63.90;37.00;;;;;;;7.64;81.45;98892.45;226641;1273;22575;-83
2024/03/13 22:30:06;;;;;;;76.50;41.50;;;;;;;7.61;81.27;98887.35;226698;1276;22557;-83
2024/03/13 22:35:09;;;;;;;77.70;40.90;;;;;;;7.59;81.34;98880.52;226731;1260;22548;-83
2024/03/13 22:40:11;;;;;;;80.80;43.70;;;;;;;7.57;81.49;98882.89;226805;1273;22525;-82
2024/03/13 22:45:22;;;;;;;83.80;44.70;;;;;;;7.52;81.57;98884.13;226761;1275;22547;-83
2024/03/13 22:50:24;;;;;;;68.30;40.30;;;;;;;7.50;81.44;98892.60;226595;1272;22580;-82
2024/03/13 22:55:26;;;;;;;79.30;43.30;;;;;;;7.48;81.50;98892.95;226523;1275;22564;-82
2024/03/13 23:05:31;;;;;;;80.60;45.60;;;;;;;7.44;81.53;98894.76;226561;1275;22551;-83
2024/03/13 23:10:34;;;;;;;73.70;43.00;;;;;;;7.38;81.37;98889.52;226718;1275;22532;-83
2024/03/13 23:15:37;;;;;;;75.00;41.40;;;;;;;7.35;81.77;98892.96;226672;1275;22555;-82
2024/03/13 23:20:39;;;;;;;67.10;38.10;;;;;;;7.35;81.75;98892.83;226587;1275;22605;-82
2024/03/13 23:25:43;;;;;;;73.50;40.60;;;;;;;7.31;81.87;98884.45;226723;1275;25091;-83
2024/03/13 23:30:46;;;;;;;66.60;38.60;;;;;;;7.29;82.12;98884.14;226729;1275;22544;-83
2024/03/13 23:35:49;;;;;;;74.20;43.30;;;;;;;7.28;82.01;98878.66;226530;1275;24915;-83
2024/03/13 23:40:51;;;;;;;75.90;43.30;;;;;;;7.27;82.19;98881.72;226562;1275;22915;-84
2024/03/13 23:45:54;;;;;;;81.60;46.10;;;;;;;7.27;82.19;98877.76;226755;1272;22525;-82
2024/03/13 23:50:58;;;;;;;78.70;46.20;;;;;;;7.23;82.09;98883.58;226646;1275;22576;-83
2024/03/13 23:56:01;;;;;;;82.50;47.30;;;;;;;7.21;82.43;98877.63;226747;1275;22545;-84
